createdAt,value
2023-05-11T05:03:32.758Z,1.07
2023-05-11T05:04:36.261Z,0.43
2023-05-11T05:05:32.652Z,0.11
2023-05-11T05:06:32.689Z,0.06
2023-05-11T05:07:33.667Z,0.19
2023-05-11T05:10:03.447Z,1.07
2023-05-11T05:12:22.389Z,0.92
2023-05-11T05:14:41.930Z,0.34
2023-05-11T05:17:00.569Z,0.20
2023-05-11T05:18:00.541Z,0.31
2023-05-11T05:19:01.772Z,0.33
2023-05-11T05:20:01.578Z,0.23
2023-05-11T05:21:01.536Z,0.14
2023-05-11T05:22:00.509Z,0.39
2023-05-11T05:23:01.587Z,0.21
2023-05-11T05:24:00.503Z,0.17
2023-05-11T05:25:02.260Z,0.41
2023-05-11T05:26:03.597Z,0.25
2023-05-11T05:27:01.530Z,0.43
2023-05-11T05:28:01.483Z,0.58
2023-05-11T05:29:00.492Z,0.74
2023-05-11T05:30:01.462Z,1.33
2023-05-11T05:31:00.501Z,0.41
2023-05-11T05:39:11.925Z,0.57
2023-05-11T05:41:31.999Z,1.07
2023-05-11T05:46:40.556Z,2.96
2023-05-11T05:48:58.095Z,1.20
2023-05-11T05:52:36.843Z,0.92
2023-05-11T05:55:14.216Z,2.04
2023-05-11T05:58:33.894Z,1.54
2023-05-11T06:00:52.591Z,1.51
2023-05-11T06:02:06.221Z,1.42
2023-05-11T06:02:54.839Z,1.03
2023-05-11T06:03:53.485Z,1.26
2023-05-11T06:04:52.158Z,1.06
2023-05-11T06:05:52.032Z,1.10
2023-05-11T06:06:52.989Z,1.20
2023-05-11T06:08:05.952Z,1.17
2023-05-11T06:08:52.958Z,0.82
2023-05-11T06:09:52.965Z,1.18
2023-05-11T06:10:52.967Z,1.24
2023-05-11T06:11:53.088Z,1.28
2023-05-11T06:14:13.676Z,1.43
2023-05-11T06:16:30.898Z,1.45
2023-05-11T06:17:32.157Z,1.51
2023-05-11T06:18:30.845Z,1.08
2023-05-11T06:19:31.785Z,1.43
2023-05-11T06:21:52.209Z,1.71
2023-05-11T06:26:48.268Z,1.24
2023-05-11T06:27:48.559Z,1.26
2023-05-11T06:28:48.287Z,1.38
2023-05-11T06:29:49.402Z,1.33
2023-05-11T06:30:48.195Z,1.15
2023-05-11T06:31:49.283Z,1.60
2023-05-11T06:32:48.248Z,1.43
2023-05-11T06:33:48.260Z,1.13
2023-05-11T06:34:48.177Z,1.14
2023-05-11T06:35:49.446Z,1.15
2023-05-11T06:36:49.669Z,1.27
2023-05-11T06:37:49.053Z,0.99
2023-05-11T06:40:07.711Z,1.25
2023-05-11T06:41:08.656Z,1.51
2023-05-11T06:42:08.755Z,1.10
2023-05-11T06:43:08.668Z,1.10
2023-05-11T06:45:26.835Z,1.47
2023-05-11T06:46:28.182Z,1.02
2023-05-11T06:47:26.919Z,0.91
2023-05-11T06:48:26.996Z,0.94
2023-05-11T06:49:28.049Z,0.72
2023-05-11T06:50:28.456Z,0.99
2023-05-11T06:51:27.013Z,1.24
2023-05-11T06:52:28.803Z,1.31
2023-05-11T06:54:46.776Z,1.13
2023-05-11T06:55:47.063Z,1.02
2023-05-11T06:56:46.729Z,1.30
2023-05-11T06:59:06.401Z,1.22
2023-05-11T07:00:07.343Z,1.30
2023-05-11T07:01:06.431Z,1.43
2023-05-11T07:02:06.329Z,1.16
2023-05-11T07:03:07.392Z,1.60
2023-05-11T07:04:07.338Z,1.23
2023-05-11T07:05:06.354Z,1.44
2023-05-11T07:06:07.287Z,1.50
2023-05-11T07:07:07.290Z,1.47
2023-05-11T07:08:07.253Z,1.33
2023-05-11T07:09:07.272Z,1.35
2023-05-11T07:10:07.265Z,1.06
2023-05-11T07:11:07.234Z,1.53
2023-05-11T07:12:07.217Z,1.87
2023-05-11T07:13:07.198Z,1.44
2023-05-11T07:14:06.202Z,1.63
2023-05-11T07:15:07.225Z,1.41
2023-05-11T07:16:07.177Z,1.36
2023-05-11T07:17:07.221Z,1.57
2023-05-11T07:18:07.218Z,1.57
2023-05-11T07:19:06.274Z,1.95
2023-05-11T07:20:07.166Z,1.68
2023-05-11T07:21:06.167Z,1.76
2023-05-11T07:22:07.178Z,1.77
2023-05-11T07:23:07.152Z,1.34
2023-05-11T07:24:07.134Z,1.00
2023-05-11T07:25:06.143Z,1.19
2023-05-11T07:26:06.105Z,1.66
2023-05-11T07:27:06.164Z,1.33
2023-05-11T07:28:07.163Z,1.58
2023-05-11T07:29:06.119Z,1.51
2023-05-11T07:30:07.197Z,1.43
2023-05-11T07:31:07.226Z,1.38
2023-05-11T07:32:07.229Z,1.36
2023-05-11T07:33:07.218Z,1.27
2023-05-11T07:34:06.295Z,1.67
2023-05-11T07:35:07.074Z,1.72
2023-05-11T07:36:06.103Z,1.48
2023-05-11T07:37:07.087Z,1.82
2023-05-11T07:38:07.092Z,1.60
2023-05-11T07:39:07.117Z,1.78
2023-05-11T07:40:07.283Z,1.94
2023-05-11T07:41:08.870Z,1.65
2023-05-11T07:42:06.225Z,2.07
2023-05-11T07:43:06.225Z,2.43
2023-05-11T07:44:07.224Z,1.75
2023-05-11T07:45:06.288Z,1.91
2023-05-11T07:47:25.893Z,2.00
2023-05-11T07:48:25.726Z,1.60
2023-05-11T07:50:26.400Z,1.84
2023-05-11T07:51:26.264Z,1.96
2023-05-11T07:52:26.974Z,1.81
2023-05-11T07:53:27.177Z,1.63
2023-05-11T07:54:26.933Z,1.44
2023-05-11T07:55:25.913Z,1.29
2023-05-11T07:56:26.984Z,1.36
2023-05-11T07:57:27.087Z,1.36
2023-05-11T07:58:26.111Z,1.50
2023-05-11T08:00:45.537Z,1.47
2023-05-11T08:01:46.445Z,1.16
2023-05-11T08:02:46.633Z,1.86
2023-05-11T08:03:46.579Z,1.53
2023-05-11T08:04:46.517Z,1.27
2023-05-11T08:05:45.504Z,1.07
2023-05-11T08:06:45.493Z,1.01
2023-05-11T08:07:45.470Z,1.00
2023-05-11T08:08:45.447Z,0.93
2023-05-11T08:09:46.459Z,1.25
2023-05-11T08:10:46.437Z,1.18
2023-05-11T08:11:46.955Z,1.32
2023-05-11T08:14:05.143Z,1.32
2023-05-11T08:15:06.090Z,1.35
2023-05-11T08:16:05.141Z,1.63
2023-05-11T08:17:06.016Z,1.18
2023-05-11T08:18:06.119Z,1.18
2023-05-11T08:19:06.155Z,1.34
2023-05-11T08:20:06.017Z,1.12
2023-05-11T08:21:05.006Z,1.02
2023-05-11T08:22:04.975Z,1.15
2023-05-11T08:23:04.947Z,1.25
2023-05-11T08:24:04.985Z,1.09
2023-05-11T08:25:04.970Z,1.24
2023-05-11T08:26:05.983Z,1.24
2023-05-11T08:27:06.018Z,1.06
2023-05-11T08:28:05.984Z,1.20
2023-05-11T08:29:05.925Z,1.47
2023-05-11T08:30:05.912Z,0.98
2023-05-11T08:31:05.460Z,1.17
2023-05-11T08:32:05.138Z,1.28
2023-05-11T08:34:13.718Z,1.07
2023-05-11T08:35:06.037Z,0.70
2023-05-11T08:36:04.877Z,1.14
2023-05-11T08:37:05.889Z,1.09
2023-05-11T08:38:05.898Z,1.14
2023-05-11T08:39:05.851Z,1.08
2023-05-11T08:40:05.851Z,1.24
2023-05-11T08:41:04.981Z,0.93
2023-05-11T08:42:04.946Z,0.96
2023-05-11T08:43:06.305Z,0.83
2023-05-11T08:44:06.005Z,0.96
2023-05-11T08:45:04.965Z,1.14
2023-05-11T08:46:05.956Z,0.72
2023-05-11T08:48:05.149Z,0.74
2023-05-11T08:49:05.926Z,0.81
2023-05-11T08:50:07.113Z,1.02
2023-05-11T08:52:24.088Z,1.27
2023-05-11T08:53:24.965Z,0.87
2023-05-11T08:54:23.958Z,1.12
2023-05-11T08:55:24.969Z,1.08
2023-05-11T08:56:24.025Z,0.87
2023-05-11T08:58:43.246Z,1.30
2023-05-11T08:59:44.281Z,0.97
2023-05-11T09:00:44.258Z,1.24
2023-05-11T09:01:43.265Z,1.04
2023-05-11T09:02:43.286Z,1.18
2023-05-11T09:03:44.265Z,0.99
2023-05-11T09:04:44.149Z,1.34
2023-05-11T09:05:43.344Z,1.35
2023-05-11T09:06:44.477Z,1.12
2023-05-11T09:07:44.365Z,1.33
2023-05-11T09:08:44.361Z,1.46
2023-05-11T09:09:44.444Z,1.40
2023-05-11T09:10:43.572Z,1.43
2023-05-11T09:11:44.561Z,1.15
2023-05-11T09:12:43.875Z,1.42
2023-05-11T09:15:03.276Z,1.32
2023-05-11T09:16:04.633Z,2.27
2023-05-11T09:17:04.438Z,1.98
2023-05-11T09:18:04.218Z,1.26
2023-05-11T09:19:04.408Z,1.34
2023-05-11T09:20:04.181Z,0.91
2023-05-11T09:21:04.154Z,4.38
2023-05-11T09:22:03.278Z,2.14
2023-05-11T09:23:03.301Z,1.45
2023-05-11T09:24:04.444Z,1.82
2023-05-11T09:25:03.351Z,1.63
2023-05-11T09:26:04.452Z,6.30
2023-05-11T09:27:04.098Z,3.49
2023-05-11T09:28:03.592Z,3.24
2023-05-11T09:29:03.856Z,3.15
2023-05-11T09:31:22.567Z,3.45
2023-05-11T09:32:22.186Z,4.63
2023-05-11T09:33:23.168Z,3.69
2023-05-11T09:34:23.231Z,1.87
2023-05-11T09:35:23.151Z,2.28
2023-05-11T09:36:23.162Z,3.48
2023-05-11T09:37:23.151Z,2.03
2023-05-11T09:38:23.159Z,2.15
2023-05-11T09:39:35.579Z,1.68
2023-05-11T09:40:27.207Z,1.54
2023-05-11T09:41:23.169Z,1.55
2023-05-11T09:42:22.223Z,1.67
2023-05-11T09:43:22.226Z,1.37
2023-05-11T09:44:23.874Z,1.51
2023-05-11T09:45:23.054Z,1.38
2023-05-11T09:46:22.074Z,1.22
2023-05-11T09:56:38.778Z,3.40
2023-05-11T09:59:02.071Z,1.45
2023-05-11T10:01:34.740Z,2.62
2023-05-11T10:02:35.876Z,1.98
2023-05-11T10:03:35.778Z,2.45
2023-05-11T10:04:35.757Z,2.52
2023-05-11T10:05:35.756Z,2.33
2023-05-11T10:06:35.712Z,2.03
2023-05-11T10:07:35.691Z,2.29
2023-05-11T10:08:34.665Z,1.47
2023-05-11T10:09:34.655Z,1.80
2023-05-11T10:10:35.726Z,1.64
2023-05-11T10:11:34.669Z,1.57
2023-05-11T10:12:35.672Z,1.57
2023-05-11T10:13:35.659Z,1.34
2023-05-11T10:14:35.622Z,1.44
2023-05-11T10:15:34.974Z,1.46
2023-05-11T10:17:54.872Z,1.75
2023-05-11T10:20:14.143Z,1.72
2023-05-11T10:21:13.911Z,1.53
2023-05-11T10:22:14.131Z,1.53
2023-05-11T10:24:33.870Z,1.79
2023-05-11T10:26:52.523Z,1.09
2023-05-11T10:29:11.944Z,1.62
2023-05-11T10:31:32.049Z,1.46
2023-05-11T10:32:31.871Z,1.72
2023-05-11T10:34:51.158Z,1.34
2023-05-11T10:37:10.369Z,1.32
2023-05-11T10:39:29.490Z,1.29
2023-05-11T10:40:30.474Z,1.41
2023-05-11T10:43:05.367Z,1.48
2023-05-11T10:44:06.208Z,1.39
2023-05-11T10:46:24.854Z,1.23
2023-05-11T10:48:43.638Z,1.63
2023-05-11T10:51:09.627Z,1.58
2023-05-11T10:52:03.650Z,1.65
2023-05-11T10:53:03.916Z,1.82
2023-05-11T10:54:03.576Z,1.88
2023-05-11T10:55:03.578Z,2.07
2023-05-11T10:56:03.552Z,2.05
2023-05-11T10:57:03.544Z,1.85
2023-05-11T10:58:03.571Z,1.50
2023-05-11T10:59:03.543Z,1.65
2023-05-11T11:00:02.532Z,1.62
2023-05-11T11:01:02.595Z,2.24
2023-05-11T11:02:04.047Z,2.11
2023-05-11T11:03:02.846Z,1.81
2023-05-11T11:05:22.562Z,1.93
2023-05-11T11:07:41.638Z,1.58
2023-05-11T11:08:41.598Z,3.03
2023-05-11T11:09:41.602Z,3.62
2023-05-11T11:10:41.569Z,3.04
2023-05-11T11:11:41.578Z,4.96
2023-05-11T11:12:41.590Z,2.62
2023-05-11T11:13:41.555Z,1.50
2023-05-11T11:14:42.556Z,2.08
2023-05-11T11:15:41.546Z,2.10
2023-05-11T11:16:42.758Z,2.29
2023-05-11T11:17:42.682Z,2.57
2023-05-11T11:20:01.198Z,1.40
2023-05-11T11:22:20.609Z,1.77
2023-05-11T11:23:20.333Z,1.29
2023-05-11T11:24:21.345Z,1.05
2023-05-11T11:26:40.066Z,0.67
2023-05-11T11:28:59.456Z,1.32
2023-05-11T11:29:59.156Z,1.68
2023-05-11T11:31:00.268Z,1.33
2023-05-11T11:32:00.293Z,1.51
2023-05-11T11:32:59.688Z,1.72
2023-05-11T11:35:31.922Z,1.07
2023-05-11T11:36:32.890Z,1.71
2023-05-11T11:37:32.791Z,1.49
2023-05-11T11:38:32.752Z,2.26
2023-05-11T11:39:32.122Z,1.68
2023-05-11T11:40:39.580Z,1.89
2023-05-11T11:41:32.806Z,1.69
2023-05-11T11:42:32.865Z,2.01
2023-05-11T11:44:51.180Z,1.72
2023-05-11T11:47:10.417Z,1.13
2023-05-11T11:48:11.369Z,2.11
2023-05-11T11:49:10.361Z,2.12
2023-05-11T11:50:10.237Z,1.62
2023-05-11T11:51:10.351Z,2.19
2023-05-11T11:52:10.330Z,2.11
2023-05-11T11:53:11.343Z,1.91
2023-05-11T11:54:11.396Z,1.81
2023-05-11T11:55:10.420Z,1.52
2023-05-11T11:56:10.466Z,1.79
2023-05-11T11:57:10.532Z,1.92
2023-05-11T11:58:10.533Z,1.59
2023-05-11T11:59:10.751Z,2.13
2023-05-11T12:00:10.727Z,1.02
2023-05-11T12:01:11.703Z,2.07
2023-05-11T12:02:10.735Z,1.51
2023-05-11T12:03:11.863Z,1.19
2023-05-11T12:04:11.001Z,1.43
2023-05-11T12:05:12.044Z,1.53
2023-05-11T12:06:11.857Z,1.80
2023-05-11T12:07:11.909Z,1.17
2023-05-11T12:08:11.950Z,1.46
2023-05-11T12:09:11.981Z,1.57
2023-05-11T12:10:11.090Z,1.59
2023-05-11T12:11:11.034Z,1.53
2023-05-11T12:12:11.006Z,1.37
2023-05-11T12:13:11.008Z,1.25
2023-05-11T12:14:12.055Z,1.37
2023-05-11T12:15:12.006Z,1.39
2023-05-11T12:16:12.097Z,1.33
2023-05-11T12:17:12.033Z,1.76
2023-05-11T12:18:12.021Z,1.41
2023-05-11T12:19:12.133Z,2.05
2023-05-11T12:20:11.066Z,2.42
2023-05-11T12:21:11.082Z,1.91
2023-05-11T12:22:12.093Z,1.68
2023-05-11T12:23:12.172Z,1.50
2023-05-11T12:24:12.217Z,1.20
2023-05-11T12:25:12.250Z,1.20
2023-05-11T12:26:12.273Z,1.28
2023-05-11T12:27:12.317Z,2.08
2023-05-11T12:28:11.388Z,3.84
2023-05-11T12:29:11.414Z,1.85
2023-05-11T12:30:12.457Z,1.54
2023-05-11T12:31:12.500Z,2.29
2023-05-11T12:32:12.564Z,1.39
2023-05-11T12:33:12.576Z,2.34
2023-05-11T12:34:12.689Z,1.64
2023-05-11T12:35:12.621Z,1.27
2023-05-11T12:36:11.891Z,1.27
2023-05-11T12:37:13.229Z,1.04
2023-05-11T12:38:13.129Z,1.05
2023-05-11T12:39:11.940Z,1.06
2023-05-11T12:40:12.904Z,1.03
2023-05-11T12:41:12.968Z,0.96
2023-05-11T12:42:13.053Z,1.17
2023-05-11T12:43:13.002Z,1.15
2023-05-11T12:44:12.980Z,1.16
2023-05-11T12:45:13.045Z,1.13
2023-05-11T12:46:12.131Z,0.73
2023-05-11T12:47:13.086Z,0.80
2023-05-11T12:48:12.932Z,0.98
2023-05-11T12:49:12.933Z,1.07
2023-05-11T12:50:11.934Z,1.30
2023-05-11T12:51:12.211Z,1.01
2023-05-11T12:52:13.202Z,1.28
2023-05-11T12:53:12.240Z,1.40
2023-05-11T12:54:13.508Z,1.01
2023-05-11T12:55:13.194Z,1.02
2023-05-11T12:56:12.244Z,1.21
2023-05-11T12:57:12.057Z,1.31
2023-05-11T12:58:13.066Z,1.22
2023-05-11T12:59:13.079Z,1.68
2023-05-11T13:00:13.323Z,1.42
2023-05-11T13:01:12.118Z,1.19
2023-05-11T13:02:12.218Z,1.03
2023-05-11T13:03:13.278Z,1.00
2023-05-11T13:04:13.131Z,1.37
2023-05-11T13:05:13.197Z,1.30
2023-05-11T13:06:13.201Z,1.27
2023-05-11T13:07:13.248Z,1.07
2023-05-11T13:08:13.317Z,1.09
2023-05-11T13:09:12.347Z,1.49
2023-05-11T13:10:12.374Z,1.18
2023-05-11T13:11:13.421Z,1.49
2023-05-11T13:12:13.517Z,1.23
2023-05-11T13:13:13.539Z,0.90
2023-05-11T13:14:13.640Z,1.03
2023-05-11T13:15:13.641Z,1.41
2023-05-11T13:16:13.714Z,2.13
2023-05-11T13:17:12.688Z,1.24
2023-05-11T13:18:14.463Z,1.07
2023-05-11T13:19:13.805Z,1.04
2023-05-11T13:20:13.696Z,1.20
2023-05-11T13:21:13.653Z,1.24
2023-05-11T13:22:12.638Z,1.33
2023-05-11T13:23:12.664Z,1.03
2023-05-11T13:24:12.646Z,1.02
2023-05-11T13:25:13.107Z,0.96
2023-05-11T13:26:13.705Z,1.20
2023-05-11T13:27:13.791Z,0.90
2023-05-11T13:29:48.816Z,1.07
2023-05-11T13:32:08.007Z,1.44
2023-05-11T13:33:09.000Z,1.48
2023-05-11T13:34:07.866Z,2.18
2023-05-11T13:35:07.855Z,1.15
2023-05-11T13:36:08.868Z,1.36
2023-05-11T13:37:08.875Z,1.14
2023-05-11T13:38:07.832Z,1.29
2023-05-11T13:39:07.817Z,1.08
2023-05-11T13:40:07.830Z,1.14
2023-05-11T13:41:07.801Z,1.18
2023-05-11T13:42:08.827Z,0.97
2023-05-11T13:43:08.812Z,1.62
2023-05-11T13:44:08.966Z,1.48
2023-05-11T13:45:08.767Z,1.56
2023-05-11T13:46:07.833Z,1.34
2023-05-11T13:47:07.826Z,0.99
2023-05-11T13:48:07.792Z,1.00
2023-05-11T13:49:08.834Z,0.94
2023-05-11T13:50:07.799Z,0.65
2023-05-11T13:51:08.792Z,0.94
2023-05-11T13:52:07.784Z,0.94
2023-05-11T13:53:08.743Z,0.87
2023-05-11T13:54:08.705Z,0.91
2023-05-11T13:55:08.701Z,1.18
2023-05-11T13:56:08.764Z,0.84
2023-05-11T13:57:07.845Z,0.94
2023-05-11T13:58:07.685Z,0.78
2023-05-11T13:59:07.723Z,1.24
2023-05-11T14:00:07.725Z,1.32
2023-05-11T14:01:08.703Z,0.95
2023-05-11T14:02:08.768Z,1.04
2023-05-11T14:03:08.879Z,1.08
2023-05-11T14:04:08.789Z,0.90
2023-05-11T14:05:08.758Z,1.15
2023-05-11T14:06:08.771Z,1.08
2023-05-11T14:07:08.766Z,1.69
2023-05-11T14:08:07.816Z,1.01
2023-05-11T14:09:07.779Z,1.21
2023-05-11T14:10:08.809Z,1.16
2023-05-11T14:11:08.859Z,0.94
2023-05-11T14:12:08.913Z,1.07
2023-05-11T14:13:07.956Z,1.04
2023-05-11T14:14:07.988Z,1.38
2023-05-11T14:15:08.055Z,1.04
2023-05-11T14:36:52.288Z,1.07
2023-05-11T14:37:52.299Z,1.22
2023-05-11T14:38:53.203Z,1.81
2023-05-11T14:39:53.182Z,2.08
2023-05-11T14:40:52.489Z,1.95
2023-05-11T14:41:52.154Z,1.59
2023-05-11T14:42:53.178Z,1.57
2023-05-11T14:43:52.217Z,1.81
2023-05-11T14:44:52.316Z,1.00
2023-05-11T14:45:53.129Z,1.19
2023-05-11T14:46:53.140Z,1.80
2023-05-11T14:47:52.145Z,1.78
2023-05-11T14:48:53.116Z,1.96
2023-05-11T14:49:53.099Z,1.52
2023-05-11T14:50:52.099Z,1.86
2023-05-11T14:51:53.061Z,2.14
2023-05-11T14:52:53.102Z,1.65
2023-05-11T14:53:52.046Z,1.23
2023-05-11T14:54:53.100Z,1.65
2023-05-11T14:55:53.052Z,1.50
2023-05-11T14:56:52.045Z,1.39
2023-05-11T14:57:52.039Z,1.46
2023-05-11T14:58:52.038Z,1.36
2023-05-11T14:59:59.585Z,1.36
2023-05-11T15:00:53.017Z,1.12
2023-05-11T15:01:52.059Z,0.89
2023-05-11T15:02:53.043Z,1.32
2023-05-11T15:03:53.036Z,1.72
2023-05-11T15:04:52.977Z,1.36
2023-05-11T15:05:51.972Z,1.55
2023-05-11T15:06:52.980Z,1.33
2023-05-11T15:07:51.957Z,1.31
2023-05-11T15:08:53.032Z,1.33
2023-05-11T15:09:52.962Z,1.57
2023-05-11T15:10:52.939Z,1.16
2023-05-11T15:11:52.944Z,1.29
2023-05-11T15:12:51.949Z,1.37
2023-05-11T15:13:52.913Z,1.40
2023-05-11T15:14:51.910Z,1.26
2023-05-11T15:15:52.980Z,1.32
2023-05-11T15:16:52.887Z,1.59
2023-05-11T15:17:52.933Z,1.87
2023-05-11T15:18:52.961Z,1.94
2023-05-11T15:19:51.873Z,2.07
2023-05-11T15:20:51.889Z,1.79
2023-05-11T15:21:52.853Z,1.64
2023-05-11T15:22:51.846Z,1.82
2023-05-11T15:23:51.833Z,2.11
2023-05-11T15:24:51.877Z,2.18
2023-05-11T15:25:51.840Z,2.41
2023-05-11T15:26:52.822Z,2.45
2023-05-11T15:27:51.812Z,2.35
2023-05-11T15:28:52.811Z,2.42
2023-05-11T15:29:51.799Z,2.46
2023-05-11T18:08:23.194Z,2.04
2023-05-11T18:09:24.082Z,1.92
2023-05-11T18:10:24.169Z,2.12
2023-05-11T18:11:22.979Z,1.53
2023-05-11T18:12:23.982Z,1.59
2023-05-11T18:13:22.991Z,1.83
2023-05-11T18:14:23.983Z,1.94
2023-05-11T18:15:23.964Z,1.95
2023-05-11T18:16:24.003Z,2.31
2023-05-11T18:17:23.936Z,2.23
2023-05-11T18:18:23.016Z,2.49
2023-05-11T18:19:22.904Z,1.90
2023-05-11T18:20:22.915Z,2.05
2023-05-11T18:21:23.990Z,2.31
2023-05-11T18:22:23.904Z,1.96
2023-05-11T18:23:22.889Z,2.35
2023-05-11T18:24:22.912Z,2.22
2023-05-11T18:25:22.874Z,2.37
2023-05-11T18:26:23.853Z,2.82
2023-05-11T18:27:23.903Z,2.44
2023-05-11T18:28:23.860Z,2.58
2023-05-11T18:29:23.852Z,2.79
2023-05-11T18:30:22.987Z,2.91
2023-05-11T18:31:22.886Z,3.08
2023-05-11T18:32:23.815Z,3.06
2023-05-11T18:33:22.921Z,3.44
2023-05-11T18:34:22.827Z,3.44
2023-05-11T18:35:22.804Z,2.53
2023-05-11T18:36:23.826Z,2.86
2023-05-11T18:37:23.826Z,2.96
2023-05-11T18:38:23.844Z,2.87
2023-05-11T18:39:22.912Z,3.37
2023-05-11T18:40:22.909Z,2.33
2023-05-11T18:41:22.938Z,2.12
2023-05-11T18:42:22.953Z,1.45
2023-05-11T18:43:23.990Z,1.42
2023-05-11T18:44:23.022Z,1.73
2023-05-11T18:45:24.052Z,1.77
2023-05-11T18:46:24.068Z,1.80
2023-05-11T18:47:24.117Z,1.65
2023-05-11T18:48:24.142Z,1.88
2023-05-11T18:49:24.201Z,1.83
2023-05-11T18:50:24.241Z,1.90
2023-05-11T18:51:24.265Z,2.04
2023-05-11T18:52:23.287Z,1.87
2023-05-11T18:53:24.344Z,1.60
2023-05-11T18:54:23.360Z,1.50
2023-05-11T18:55:24.405Z,1.80
2023-05-11T18:56:24.456Z,2.09
2023-05-11T18:57:24.499Z,2.08
2023-05-11T18:58:24.476Z,2.42
2023-05-11T18:59:24.514Z,3.14
2023-05-11T19:00:24.533Z,2.62
2023-05-11T19:01:33.133Z,2.54
2023-05-11T19:02:24.644Z,3.26
2023-05-11T19:03:23.575Z,3.03
2023-05-11T19:04:23.512Z,3.41
2023-05-11T19:05:23.536Z,3.20
2023-05-11T19:06:24.520Z,3.63
2023-05-11T19:07:24.529Z,3.47
2023-05-11T19:08:24.504Z,3.06
2023-05-11T19:09:23.532Z,2.78
2023-05-11T19:10:24.506Z,3.34
2023-05-11T19:11:24.475Z,3.24
2023-05-11T19:12:24.500Z,3.13
2023-05-11T19:13:24.479Z,3.61
2023-05-11T19:14:24.468Z,3.69
2023-05-11T19:15:23.500Z,3.43
2023-05-11T19:16:24.476Z,2.62
2023-05-11T19:17:24.532Z,2.44
2023-05-11T19:18:23.463Z,2.72
2023-05-11T19:19:24.424Z,2.94
2023-05-11T19:20:24.451Z,2.80
2023-05-11T19:21:24.453Z,2.31
2023-05-11T19:22:24.412Z,3.15
2023-05-11T19:23:24.449Z,3.05
2023-05-11T19:24:24.393Z,2.78
2023-05-11T19:25:24.387Z,3.43
2023-05-11T19:26:24.378Z,3.36
2023-05-11T19:27:24.388Z,3.33
2023-05-11T19:28:24.451Z,3.38
2023-05-11T19:29:24.375Z,3.11
2023-05-11T19:30:24.370Z,3.72
2023-05-11T19:31:23.394Z,3.68
2023-05-11T19:32:23.533Z,4.13
2023-05-11T19:33:24.382Z,4.54
2023-05-11T19:34:24.326Z,3.62
2023-05-11T19:35:23.315Z,3.95
2023-05-11T19:36:24.308Z,3.96
2023-05-11T19:37:24.348Z,3.71
2023-05-11T19:38:23.315Z,4.06
2023-05-11T19:39:24.395Z,3.27
2023-05-11T19:40:43.732Z,2.18
2023-05-11T19:41:24.286Z,1.93
2023-05-11T19:42:38.444Z,1.61
2023-05-11T19:43:24.284Z,1.89
2023-05-11T19:44:24.276Z,2.64
2023-05-11T19:45:23.277Z,2.41
2023-05-11T19:46:24.357Z,2.12
2023-05-11T19:47:23.257Z,2.76
2023-05-11T19:48:23.260Z,2.47
2023-05-11T19:49:24.239Z,2.59
2023-05-11T19:50:24.854Z,2.04
2023-05-11T19:51:24.241Z,1.81
2023-05-11T19:52:24.211Z,1.95
2023-05-11T19:53:24.216Z,1.76
2023-05-11T19:54:23.186Z,1.32
2023-05-11T19:55:24.187Z,1.31
2023-05-11T19:56:24.183Z,1.20
2023-05-11T19:57:23.212Z,1.00
2023-05-11T19:58:24.174Z,1.16
2023-05-11T19:59:24.177Z,0.89
2023-05-11T20:00:23.178Z,0.74
2023-05-11T20:01:23.179Z,0.87
2023-05-11T20:02:24.212Z,1.39
2023-05-11T20:03:25.268Z,1.31
2023-05-11T20:04:24.118Z,2.41
2023-05-11T20:05:24.131Z,2.26
2023-05-11T20:06:24.126Z,1.43
2023-05-11T20:07:24.120Z,1.45
2023-05-11T20:08:23.103Z,1.49
2023-05-11T20:09:24.736Z,1.27
2023-05-11T20:10:24.086Z,1.18
2023-05-11T20:11:23.076Z,1.14
2023-05-11T20:12:23.071Z,1.10
2023-05-11T20:13:23.064Z,0.97
2023-05-11T20:14:24.078Z,0.86
2023-05-11T20:15:24.107Z,0.76
2023-05-11T20:16:23.118Z,0.64
2023-05-11T20:17:24.084Z,0.63
2023-05-11T20:18:23.047Z,0.98
2023-05-11T20:19:24.019Z,0.67
2023-05-11T20:20:24.018Z,0.85
2023-05-11T20:21:24.038Z,0.89
2023-05-11T20:22:23.997Z,0.76
2023-05-11T20:23:23.022Z,0.95
2023-05-11T20:24:23.978Z,0.87
2023-05-11T20:25:23.978Z,0.67
2023-05-11T20:26:22.967Z,0.57
2023-05-11T20:27:23.982Z,0.77
2023-05-11T20:28:22.998Z,0.67
2023-05-11T20:29:23.017Z,0.61
2023-05-11T20:30:23.085Z,0.75
2023-05-11T20:31:24.145Z,0.54
2023-05-11T20:32:23.154Z,0.69
2023-05-11T20:34:23.203Z,0.71
2023-05-11T20:35:23.150Z,0.59
2023-05-11T20:36:24.127Z,0.88
2023-05-11T20:37:23.125Z,0.77
2023-05-11T20:38:24.111Z,0.54
2023-05-11T20:39:23.136Z,0.89
2023-05-11T20:40:23.123Z,0.71
2023-05-11T20:41:23.089Z,0.84
2023-05-11T20:42:24.080Z,0.84
2023-05-11T20:43:23.069Z,0.81
2023-05-11T20:44:23.057Z,0.66
2023-05-11T20:45:24.128Z,0.82
2023-05-11T20:46:23.091Z,0.76
2023-05-11T20:47:23.062Z,0.75
2023-05-11T20:48:38.537Z,1.82
2023-05-11T20:49:37.595Z,2.46
2023-05-11T20:50:24.028Z,2.03
2023-05-11T20:51:23.086Z,2.66
2023-05-11T20:52:23.038Z,4.42
2023-05-11T20:53:24.006Z,3.67
2023-05-11T20:54:23.019Z,2.76
2023-05-11T20:55:23.990Z,2.93
2023-05-11T20:56:22.976Z,3.42
2023-05-11T20:57:23.981Z,3.59
2023-05-11T20:58:22.962Z,4.88
2023-05-11T21:00:23.160Z,7.91
2023-05-11T21:01:23.046Z,6.84
2023-05-11T21:02:24.009Z,7.02
2023-05-11T21:03:24.030Z,3.24
2023-05-11T21:04:23.043Z,1.71
2023-05-11T21:05:25.417Z,1.47
2023-05-11T21:06:24.111Z,1.36
2023-05-11T21:07:23.148Z,1.26
2023-05-11T21:08:24.178Z,1.00
2023-05-11T21:09:23.272Z,1.10
2023-05-11T21:10:23.284Z,1.16
2023-05-11T21:11:24.315Z,1.15
2023-05-11T21:12:23.297Z,0.85
2023-05-11T21:13:24.317Z,1.01
2023-05-11T21:14:23.333Z,1.00
2023-05-11T21:15:24.379Z,0.95
2023-05-11T21:16:24.431Z,0.90
2023-05-11T21:17:24.452Z,1.00
2023-05-11T21:18:23.425Z,1.01
2023-05-11T21:19:24.455Z,0.79
2023-05-11T21:20:24.425Z,0.87
2023-05-11T21:21:24.490Z,1.15
2023-05-11T21:22:24.537Z,0.64
2023-05-11T21:23:23.572Z,0.79
2023-05-11T21:24:24.594Z,1.22
2023-05-11T21:25:24.665Z,1.00
2023-05-11T21:26:23.705Z,0.79
2023-05-11T21:27:24.727Z,0.89
2023-05-11T21:28:24.763Z,0.85
2023-05-11T21:29:24.797Z,1.01
2023-05-11T21:30:24.819Z,0.68
2023-05-11T21:31:23.861Z,0.85
2023-05-11T21:32:24.922Z,1.08
2023-05-11T21:33:24.892Z,0.90
2023-05-11T21:34:24.929Z,0.94
2023-05-11T21:35:24.955Z,0.78
2023-05-11T21:36:24.987Z,0.87
2023-05-11T21:37:25.009Z,1.10
2023-05-11T21:38:24.051Z,1.10
2023-05-11T21:39:24.061Z,1.13
2023-05-11T21:40:25.079Z,1.26
2023-05-11T21:41:25.080Z,0.65
2023-05-11T21:42:24.116Z,0.59
2023-05-11T21:43:24.181Z,0.75
2023-05-11T21:44:24.207Z,0.89
2023-05-11T21:45:25.240Z,1.02
2023-05-11T21:46:25.266Z,1.25
2023-05-11T21:47:25.356Z,0.95
2023-05-11T21:48:24.324Z,0.90
2023-05-11T21:49:25.389Z,0.92
2023-05-11T21:50:24.430Z,0.94
2023-05-11T21:51:25.404Z,0.84
2023-05-11T21:52:25.478Z,0.97
2023-05-11T21:53:25.493Z,0.88
2023-05-11T21:54:24.540Z,0.99
2023-05-11T21:55:24.592Z,0.88
2023-05-11T21:56:25.654Z,1.01
2023-05-11T21:57:24.639Z,1.31
2023-05-11T21:58:25.721Z,1.54
2023-05-11T21:59:24.713Z,1.60
2023-05-11T22:00:25.764Z,1.79
2023-05-11T22:01:25.944Z,1.79
2023-05-11T22:02:25.945Z,1.80
2023-05-11T22:03:25.982Z,1.46
2023-05-11T22:04:25.914Z,1.39
2023-05-11T22:05:25.977Z,1.12
2023-05-11T22:06:24.969Z,1.12
2023-05-11T22:07:24.995Z,1.28
2023-05-11T22:08:26.060Z,1.01
2023-05-11T22:09:25.037Z,0.88
2023-05-11T22:10:26.091Z,1.13
2023-05-11T22:11:25.136Z,1.75
2023-05-11T22:12:26.297Z,1.22
2023-05-11T22:13:26.268Z,1.56
2023-05-11T22:14:25.285Z,1.31
2023-05-11T22:15:26.342Z,1.13
2023-05-11T22:16:26.480Z,0.89
2023-05-11T22:17:26.520Z,0.94
2023-05-11T22:18:26.489Z,0.86
2023-05-11T22:19:25.469Z,1.14
2023-05-11T22:20:26.452Z,1.46
2023-05-11T22:21:26.502Z,3.25
2023-05-11T22:22:25.507Z,2.03
2023-05-11T22:23:26.531Z,1.18
2023-05-11T22:24:25.572Z,1.17
2023-05-11T22:25:26.675Z,1.74
2023-05-11T22:26:26.694Z,2.55
2023-05-11T22:27:26.819Z,2.34
2023-05-11T22:28:25.752Z,3.83
2023-05-11T22:29:25.791Z,3.90
2023-05-11T22:30:26.857Z,3.20
2023-05-11T22:31:25.909Z,3.52
2023-05-11T22:32:25.931Z,3.20
2023-05-11T22:33:26.959Z,1.91
2023-05-11T22:34:26.996Z,2.38
2023-05-11T22:35:27.212Z,2.86
2023-05-11T22:36:27.033Z,3.72
2023-05-11T22:37:27.053Z,4.02
2023-05-11T22:38:26.165Z,5.00
2023-05-11T22:39:27.163Z,4.88
2023-05-11T22:40:27.241Z,4.74
2023-05-11T22:41:27.279Z,4.57
2023-05-11T22:42:26.350Z,4.55
2023-05-11T22:43:27.330Z,4.63
2023-05-11T22:44:26.360Z,4.13
2023-05-11T22:45:27.385Z,3.27
2023-05-11T22:46:27.462Z,2.91
2023-05-11T22:47:26.550Z,2.16
2023-05-11T22:48:27.546Z,2.61
2023-05-11T22:49:27.532Z,2.82
2023-05-11T22:50:26.547Z,3.05
2023-05-11T22:51:27.552Z,2.33
2023-05-11T22:52:27.597Z,1.87
2023-05-11T22:53:26.638Z,2.01
2023-05-11T22:54:27.620Z,1.93
2023-05-11T22:55:26.648Z,1.71
2023-05-11T22:56:28.268Z,1.85
2023-05-11T22:57:27.661Z,1.91
2023-05-11T22:58:26.719Z,2.64
2023-05-11T22:59:27.738Z,1.83